Ashaway, Rhode Island
Current Conditions -  °F | °C
As of 4:53 AM on Tuesday 21 Oct 2014 (Local Time) from KWST Reporting Station
Broken Clouds Broken Clouds  
Wind Chill: 52°   Ceiling: 7500
Heat Index: 52°   Visibility: 8mi
Dew Point: 51°   Wind: 3mph
Humidity: 97%   Direction: 360°N
Pressure: 29.95"   Gusts: NA
Location:  41.43°N, 71.79°W
Report Text: KWST 210853Z AUTO 36003KT 8SM SCT050 BKN075 11/11 A2995 RMK AO2 RAE05 SLP142 P0000 60005 T01110106 56012
Loading
Personal Weather Stations






























Interactive Weather Map New forecast layout! Learn more

10-Day Weather Forecast

Advertisements
Track Severe Weather on mobile